createdAt,value
2019-05-31T00:02:39.858Z,4.90
2019-05-31T00:06:48.674Z,5.30
2019-05-31T00:10:57.973Z,6.13
2019-05-31T00:15:07.196Z,5.73
2019-05-31T00:19:16.022Z,7.10
2019-05-31T00:23:24.851Z,6.17
2019-05-31T00:27:33.676Z,6.50
2019-05-31T00:31:42.497Z,5.67
2019-05-31T00:35:51.340Z,6.25
2019-05-31T00:40:00.257Z,6.10
2019-05-31T00:44:09.092Z,6.47
2019-05-31T00:48:17.907Z,5.87
2019-05-31T00:52:26.831Z,6.43
2019-05-31T00:56:35.679Z,6.60
2019-05-31T01:00:45.179Z,6.50
2019-05-31T01:04:53.999Z,6.60
2019-05-31T01:09:03.443Z,6.40
2019-05-31T01:13:12.374Z,5.80
2019-05-31T01:17:21.267Z,6.40
2019-05-31T01:21:30.087Z,6.87
2019-05-31T01:25:39.452Z,7.00
2019-05-31T01:29:48.426Z,5.80
2019-05-31T01:33:57.264Z,5.50
2019-05-31T01:38:06.544Z,5.90
2019-05-31T01:42:15.537Z,21.50
2019-05-31T01:46:24.874Z,6.80
2019-05-31T01:50:33.767Z,6.30
2019-05-31T01:54:42.949Z,6.60
2019-05-31T01:58:51.790Z,6.20
2019-05-31T02:03:00.628Z,6.10
2019-05-31T02:07:10.591Z,6.30
2019-05-31T02:11:19.559Z,6.10
2019-05-31T02:15:32.349Z,5.90
2019-05-31T02:19:39.348Z,6.13
2019-05-31T02:23:48.186Z,5.90
2019-05-31T02:27:57.011Z,6.30
2019-05-31T02:32:06.339Z,6.27
2019-05-31T02:36:17.281Z,6.33
2019-05-31T02:40:26.835Z,6.30
2019-05-31T02:44:35.768Z,6.50
2019-05-31T02:48:45.068Z,6.17
2019-05-31T02:52:54.382Z,6.10
2019-05-31T02:57:03.431Z,5.97
2019-05-31T03:01:13.740Z,5.80
2019-05-31T03:05:23.470Z,6.30
2019-05-31T03:09:34.189Z,5.47
2019-05-31T03:13:44.453Z,5.57
2019-05-31T03:17:54.632Z,6.17
2019-05-31T03:22:03.637Z,5.90
2019-05-31T03:26:14.407Z,6.00
2019-05-31T03:30:34.730Z,6.60
2019-05-31T03:34:36.538Z,6.33
2019-05-31T03:38:45.760Z,6.20
2019-05-31T03:42:54.575Z,5.97
2019-05-31T03:47:03.611Z,5.60
2019-05-31T03:51:12.555Z,6.10
2019-05-31T03:55:23.536Z,6.00
2019-05-31T03:59:32.113Z,6.00
2019-05-31T04:03:41.275Z,6.90
2019-05-31T04:07:50.244Z,6.47
2019-05-31T04:11:59.178Z,5.73
2019-05-31T04:16:08.100Z,6.20
2019-05-31T04:20:17.659Z,6.57
2019-05-31T04:24:27.002Z,6.60
2019-05-31T04:28:35.840Z,6.63
2019-05-31T04:32:44.670Z,6.73
2019-05-31T04:36:53.537Z,7.97
2019-05-31T04:41:02.425Z,8.40
2019-05-31T04:45:11.472Z,8.03
2019-05-31T04:49:22.079Z,8.73
2019-05-31T04:53:31.024Z,9.13
2019-05-31T04:57:39.961Z,8.10
2019-05-31T05:01:48.969Z,4.63
2019-05-31T05:05:57.802Z,4.20
2019-05-31T05:10:07.292Z,3.33
2019-05-31T05:14:16.556Z,3.87
2019-05-31T05:18:28.760Z,3.90
2019-05-31T05:22:36.342Z,3.80
2019-05-31T05:26:45.247Z,4.33
2019-05-31T05:30:54.253Z,4.17
2019-05-31T05:35:03.291Z,4.00
2019-05-31T05:39:12.393Z,4.00
2019-05-31T05:43:21.289Z,3.90
2019-05-31T05:47:46.248Z,4.00
2019-05-31T05:51:40.760Z,4.07
2019-05-31T05:55:49.737Z,4.00
2019-05-31T05:59:58.640Z,3.50
2019-05-31T06:04:07.548Z,3.80
2019-05-31T06:08:16.397Z,3.80
2019-05-31T06:12:25.321Z,3.37
2019-05-31T06:16:56.347Z,3.60
2019-05-31T06:20:44.925Z,3.80
2019-05-31T06:24:53.764Z,4.00
2019-05-31T06:29:02.664Z,3.73
2019-05-31T06:33:11.633Z,3.80
2019-05-31T06:37:20.781Z,3.17
2019-05-31T06:41:30.257Z,3.30
2019-05-31T06:45:39.313Z,3.60
2019-05-31T06:49:48.152Z,3.70
2019-05-31T06:53:57.085Z,3.73
2019-05-31T06:58:06.317Z,3.53
2019-05-31T07:02:15.151Z,3.40
2019-05-31T07:06:24.000Z,3.90
2019-05-31T07:10:33.315Z,3.50
2019-05-31T07:14:42.446Z,3.43
2019-05-31T07:18:51.621Z,3.53
2019-05-31T07:23:00.540Z,3.40
2019-05-31T07:27:09.369Z,3.70
2019-05-31T07:31:18.450Z,3.77
2019-05-31T07:35:27.448Z,3.60
2019-05-31T07:39:37.395Z,3.50
2019-05-31T07:43:46.941Z,3.80
2019-05-31T07:47:55.798Z,3.67
2019-05-31T07:52:04.860Z,4.80
2019-05-31T07:56:13.763Z,3.47
2019-05-31T08:00:22.930Z,3.73
2019-05-31T08:04:32.969Z,3.53
2019-05-31T08:08:42.131Z,3.07
2019-05-31T08:12:50.983Z,3.30
2019-05-31T08:16:59.922Z,2.90
2019-05-31T08:21:08.860Z,3.50
2019-05-31T08:25:17.836Z,3.40
2019-05-31T08:29:28.186Z,3.10
2019-05-31T08:33:37.667Z,3.20
2019-05-31T08:37:46.648Z,3.10
2019-05-31T08:41:55.583Z,3.07
2019-05-31T08:46:06.173Z,3.00
2019-05-31T08:50:15.299Z,2.67
2019-05-31T09:15:05.509Z,3.00
2019-05-31T09:19:14.426Z,2.70
2019-05-31T09:23:23.329Z,2.50
2019-05-31T09:27:48.198Z,2.70
2019-05-31T09:31:43.228Z,3.00
2019-05-31T09:35:52.301Z,3.10
2019-05-31T09:40:01.156Z,2.97
2019-05-31T09:44:10.066Z,3.00
2019-05-31T09:48:18.995Z,3.33
2019-05-31T09:52:27.981Z,3.90
2019-05-31T09:56:37.666Z,3.30
2019-05-31T10:00:49.051Z,2.90
2019-05-31T10:04:57.959Z,3.10
2019-05-31T10:09:08.569Z,3.05
2019-05-31T10:13:17.770Z,3.05
2019-05-31T10:17:29.801Z,3.03
2019-05-31T10:21:38.758Z,3.30
2019-05-31T10:25:47.755Z,2.80
2019-05-31T10:29:56.664Z,2.97
2019-05-31T10:34:05.578Z,4.07
2019-05-31T10:38:14.516Z,3.07
2019-05-31T10:42:25.987Z,3.20
2019-05-31T11:03:12.414Z,3.00
2019-05-31T11:11:29.340Z,3.50
2019-05-31T11:20:03.221Z,3.50
2019-05-31T11:23:58.581Z,3.10
2019-05-31T11:28:07.870Z,3.35
2019-05-31T11:32:17.161Z,3.20
2019-05-31T11:36:26.152Z,3.05
2019-05-31T11:40:36.561Z,3.10
2019-05-31T11:44:46.987Z,3.30
2019-05-31T11:48:56.812Z,3.10
2019-05-31T11:53:05.803Z,2.87
2019-05-31T11:57:14.821Z,3.20
2019-05-31T12:01:23.785Z,3.00
2019-05-31T12:05:32.644Z,3.17
2019-05-31T12:09:43.106Z,2.90
2019-05-31T12:13:52.286Z,3.13
2019-05-31T12:18:01.299Z,3.00
2019-05-31T12:22:12.946Z,3.23
2019-05-31T12:26:21.175Z,3.20
2019-05-31T12:30:30.350Z,2.80
2019-05-31T12:34:40.172Z,3.30
2019-05-31T12:38:49.105Z,3.67
2019-05-31T12:42:57.952Z,3.20
2019-05-31T12:47:06.874Z,2.83
2019-05-31T12:51:26.585Z,3.20
2019-05-31T12:55:26.505Z,3.17
2019-05-31T12:59:35.447Z,3.50
2019-05-31T13:03:45.567Z,3.70
2019-05-31T13:07:57.678Z,3.50
2019-05-31T13:12:05.702Z,2.90
2019-05-31T13:16:14.639Z,3.10
2019-05-31T13:20:23.672Z,2.90
2019-05-31T13:24:33.783Z,3.10
2019-05-31T13:28:43.939Z,3.00
2019-05-31T13:32:55.417Z,3.13
2019-05-31T13:37:03.832Z,2.90
2019-05-31T13:41:12.750Z,2.87
2019-05-31T13:45:22.008Z,2.70
2019-05-31T13:49:31.007Z,3.20
2019-05-31T13:53:39.951Z,3.00
2019-05-31T13:57:49.016Z,3.10
2019-05-31T14:01:58.228Z,3.30
2019-05-31T14:06:07.205Z,3.03
2019-05-31T14:10:16.420Z,2.83
2019-05-31T14:14:25.333Z,2.83
2019-05-31T14:18:34.582Z,2.90
2019-05-31T14:22:57.332Z,3.60
2019-05-31T14:26:56.786Z,3.27
2019-05-31T14:31:05.529Z,2.73
2019-05-31T14:35:14.510Z,2.97
2019-05-31T14:39:23.499Z,3.00
2019-05-31T14:43:32.401Z,3.00
2019-05-31T14:47:41.424Z,3.10
2019-05-31T14:51:51.310Z,2.90
2019-05-31T14:56:00.349Z,3.20
2019-05-31T15:00:10.356Z,3.30
2019-05-31T15:12:37.899Z,3.40
2019-05-31T15:16:47.185Z,3.30
2019-05-31T15:20:56.878Z,3.00
2019-05-31T15:25:06.051Z,3.60
2019-05-31T15:29:14.951Z,2.97
2019-05-31T15:34:05.613Z,3.67
2019-05-31T15:38:14.606Z,3.10
2019-05-31T15:42:29.625Z,3.13
2019-05-31T15:46:38.608Z,3.20
2019-05-31T15:50:47.444Z,3.73
2019-05-31T15:55:09.810Z,3.20
2019-05-31T15:59:07.403Z,3.40
2019-05-31T16:03:16.416Z,2.73
2019-05-31T16:07:25.801Z,3.30
2019-05-31T16:11:35.422Z,2.90
2019-05-31T16:15:44.412Z,3.37
2019-05-31T16:19:53.357Z,3.43
2019-05-31T16:24:11.770Z,3.47
2019-05-31T16:28:12.994Z,2.90
2019-05-31T16:32:21.936Z,3.07
2019-05-31T16:36:30.912Z,2.87
2019-05-31T16:40:40.391Z,3.13
2019-05-31T16:44:49.410Z,3.13
2019-05-31T16:48:58.291Z,3.40
2019-05-31T16:53:09.247Z,3.10
2019-05-31T16:57:18.576Z,3.40
2019-05-31T17:01:27.485Z,3.23
2019-05-31T17:05:36.497Z,3.17
2019-05-31T17:09:45.360Z,2.90
2019-05-31T17:13:54.520Z,4.27
2019-05-31T17:18:03.889Z,4.23
2019-05-31T17:22:13.033Z,3.20
2019-05-31T17:26:22.152Z,3.47
2019-05-31T17:30:36.369Z,3.27
2019-05-31T17:34:45.333Z,3.60
2019-05-31T17:38:54.310Z,3.50
2019-05-31T17:43:03.583Z,3.40
2019-05-31T17:47:12.625Z,3.50
2019-05-31T17:51:21.819Z,3.40
2019-05-31T17:55:30.878Z,3.27
2019-05-31T17:59:39.875Z,3.20
2019-05-31T18:03:48.875Z,3.73
2019-05-31T18:07:57.872Z,3.43
2019-05-31T18:12:06.850Z,3.43
2019-05-31T18:16:16.437Z,3.80
2019-05-31T18:20:26.597Z,3.47
2019-05-31T18:24:35.649Z,4.10
2019-05-31T18:28:44.736Z,4.30
2019-05-31T18:32:53.608Z,3.77
2019-05-31T18:37:02.538Z,3.80
2019-05-31T18:41:12.732Z,10.10
2019-05-31T18:45:22.611Z,4.37
2019-05-31T18:49:35.425Z,4.90
2019-05-31T18:53:42.268Z,11.87
2019-05-31T18:57:51.294Z,12.97
2019-05-31T19:02:00.315Z,12.83
2019-05-31T19:06:09.299Z,10.87
2019-05-31T19:10:19.158Z,4.43
2019-05-31T19:14:28.153Z,5.20
2019-05-31T19:18:37.143Z,6.10
2019-05-31T19:22:46.073Z,8.87
2019-05-31T19:26:54.984Z,6.83
2019-05-31T19:31:04.003Z,4.83
2019-05-31T19:35:15.807Z,8.03
2019-05-31T19:39:28.028Z,4.47
2019-05-31T19:43:35.664Z,7.53
2019-05-31T19:47:44.553Z,4.50
2019-05-31T19:51:53.853Z,4.87
2019-05-31T19:56:13.003Z,5.10
2019-05-31T20:00:15.223Z,4.90
2019-05-31T20:04:24.387Z,5.63
2019-05-31T20:08:33.362Z,5.50
2019-05-31T20:12:42.301Z,5.20
2019-05-31T20:16:51.435Z,4.90
2019-05-31T20:21:00.526Z,5.53
2019-05-31T20:25:11.268Z,4.93
2019-05-31T20:29:23.076Z,4.70
2019-05-31T20:33:31.145Z,5.20
2019-05-31T20:37:39.985Z,5.20
2019-05-31T20:41:48.887Z,5.23
2019-05-31T20:45:57.712Z,5.27
2019-05-31T20:50:07.064Z,5.33
2019-05-31T20:54:15.978Z,5.57
2019-05-31T20:58:39.431Z,5.75
2019-05-31T21:02:35.538Z,5.40
2019-05-31T21:06:44.584Z,6.30
2019-05-31T21:10:53.580Z,7.40
2019-05-31T21:15:02.569Z,7.03
2019-05-31T21:19:11.468Z,6.33
2019-05-31T21:23:20.380Z,6.17
2019-05-31T21:27:29.293Z,5.53
2019-05-31T21:31:38.540Z,7.23
2019-05-31T21:35:47.447Z,5.90
2019-05-31T21:39:56.425Z,6.40
2019-05-31T21:44:05.544Z,5.63
2019-05-31T21:48:14.522Z,5.83
2019-05-31T21:52:23.419Z,5.90
2019-05-31T21:56:32.548Z,6.73
2019-05-31T22:00:44.508Z,6.23
2019-05-31T22:04:53.420Z,5.40
2019-05-31T22:09:02.347Z,6.53
2019-05-31T22:13:11.522Z,10.43
2019-05-31T22:17:20.418Z,12.73
2019-05-31T22:21:30.225Z,9.35
2019-05-31T22:25:39.340Z,40.60
2019-05-31T22:29:48.279Z,12.73
2019-05-31T22:33:57.288Z,22.93
2019-05-31T22:38:06.533Z,50.67
2019-05-31T22:42:15.443Z,49.47
2019-05-31T22:46:24.365Z,34.03
2019-05-31T22:50:33.288Z,19.53
2019-05-31T22:54:42.284Z,30.20
2019-05-31T22:58:51.552Z,37.90
2019-05-31T23:03:00.593Z,31.03
2019-05-31T23:07:09.507Z,9.37
2019-05-31T23:11:18.523Z,25.10
2019-05-31T23:15:27.430Z,23.57
2019-05-31T23:19:37.047Z,11.10
2019-05-31T23:23:46.075Z,10.07
2019-05-31T23:27:54.942Z,13.55
2019-05-31T23:32:03.849Z,8.93
2019-05-31T23:36:12.693Z,9.47
2019-05-31T23:40:21.654Z,6.37
2019-05-31T23:44:30.640Z,5.70
2019-05-31T23:48:40.849Z,34.43
2019-05-31T23:52:49.860Z,23.13
2019-05-31T23:56:58.792Z,13.30
